createdAt,value
2018-04-23T00:01:58.443Z,3.9
2018-04-23T00:04:58.453Z,4
2018-04-23T00:07:58.475Z,5
2018-04-23T00:10:58.273Z,3.5
2018-04-23T00:13:58.409Z,3.6
2018-04-23T00:16:58.533Z,3.9
2018-04-23T00:19:58.367Z,3.7
2018-04-23T00:22:58.663Z,4.1
2018-04-23T00:25:58.312Z,3.4
2018-04-23T00:28:58.476Z,3.8
2018-04-23T00:31:58.709Z,3.4
2018-04-23T00:34:58.514Z,4
2018-04-23T00:37:58.603Z,3.7
2018-04-23T00:40:58.461Z,3.6
2018-04-23T00:43:58.455Z,3.4
2018-04-23T00:46:58.388Z,3.4
2018-04-23T00:49:58.439Z,3.2
2018-04-23T00:52:58.501Z,3.4
2018-04-23T00:55:58.454Z,3.8
2018-04-23T00:58:58.393Z,3.7
2018-04-23T01:01:58.473Z,4.2
2018-04-23T01:04:58.363Z,3.2
2018-04-23T01:07:58.308Z,4
2018-04-23T01:10:58.400Z,3
2018-04-23T01:13:58.110Z,3.3
2018-04-23T01:16:58.301Z,3.3
2018-04-23T01:19:58.395Z,3.8
2018-04-23T01:22:58.532Z,3.2
2018-04-23T01:25:58.441Z,3.1
2018-04-23T01:28:58.635Z,3.2
2018-04-23T01:31:58.437Z,3.2
2018-04-23T01:34:58.292Z,3.5
2018-04-23T01:37:58.456Z,3.2
2018-04-23T01:40:58.411Z,3.1
2018-04-23T01:43:58.365Z,2.8
2018-04-23T01:46:58.337Z,3.4
2018-04-23T01:49:58.443Z,3.1
2018-04-23T01:52:58.215Z,3.6
2018-04-23T01:55:58.457Z,3.7
2018-04-23T01:58:58.192Z,3.1
2018-04-23T02:01:58.384Z,3.6
2018-04-23T02:04:58.350Z,3.1
2018-04-23T02:07:58.324Z,2.8
2018-04-23T02:10:58.450Z,3.1
2018-04-23T02:13:58.254Z,3.1
2018-04-23T02:16:58.379Z,3.1
2018-04-23T02:19:58.703Z,3.5
2018-04-23T02:22:58.496Z,3.1
2018-04-23T02:25:58.413Z,3.2
2018-04-23T02:28:59.329Z,2.8
2018-04-23T02:31:58.440Z,4.3
2018-04-23T02:34:58.196Z,3
2018-04-23T02:37:58.536Z,3
2018-04-23T02:40:58.252Z,2.9
2018-04-23T02:43:58.452Z,2.9
2018-04-23T02:46:58.329Z,3.2
2018-04-23T02:49:58.379Z,3.2
2018-04-23T02:52:58.486Z,2.7
2018-04-23T02:55:58.311Z,3
2018-04-23T02:58:58.339Z,3
2018-04-23T03:01:58.408Z,2.8
2018-04-23T03:04:58.299Z,2.9
2018-04-23T03:07:58.310Z,3.1
2018-04-23T03:10:58.344Z,2.9
2018-04-23T03:13:58.599Z,3.1
2018-04-23T03:16:58.206Z,3.9
2018-04-23T03:19:58.373Z,3.3
2018-04-23T03:22:58.310Z,2.9
2018-04-23T03:25:58.478Z,2.7
2018-04-23T03:28:58.404Z,2.9
2018-04-23T03:31:58.269Z,3
2018-04-23T03:34:58.384Z,3
2018-04-23T03:37:58.194Z,2.8
2018-04-23T03:40:58.316Z,2.8
2018-04-23T03:43:58.396Z,3
2018-04-23T03:46:58.308Z,2.8
2018-04-23T03:49:58.247Z,3.1
2018-04-23T03:52:58.338Z,3.3
2018-04-23T03:55:58.222Z,3.1
2018-04-23T03:58:58.308Z,2.9
2018-04-23T04:01:58.393Z,2.9
2018-04-23T04:04:58.663Z,2.8
2018-04-23T04:07:58.327Z,2.8
2018-04-23T04:10:58.420Z,2.8
2018-04-23T04:13:58.297Z,2.9
2018-04-23T04:16:59.103Z,2.7
2018-04-23T04:19:58.291Z,2.6
2018-04-23T04:22:58.443Z,2.5
2018-04-23T04:25:58.274Z,2.7
2018-04-23T04:28:58.465Z,3
2018-04-23T04:31:58.278Z,2.8
2018-04-23T04:34:58.176Z,2.8
2018-04-23T04:37:58.338Z,2.6
2018-04-23T04:40:58.342Z,2.7
2018-04-23T04:43:58.904Z,2.6
2018-04-23T04:46:58.045Z,2.7
2018-04-23T04:49:58.194Z,2.6
2018-04-23T04:52:58.426Z,3
2018-04-23T04:55:58.300Z,2.6
2018-04-23T04:58:58.493Z,3.5
2018-04-23T05:01:58.289Z,3.5
2018-04-23T05:04:58.391Z,2.8
2018-04-23T05:07:58.238Z,2.7
2018-04-23T05:10:58.469Z,2.7
2018-04-23T05:13:58.500Z,2.7
2018-04-23T05:16:58.217Z,2.7
2018-04-23T05:19:58.336Z,3.5
2018-04-23T05:22:58.181Z,2.7
2018-04-23T05:25:58.423Z,2.6
2018-04-23T05:28:58.313Z,2.7
2018-04-23T05:31:58.441Z,3.2
2018-04-23T05:34:58.236Z,2.8
2018-04-23T05:37:58.231Z,2.7
2018-04-23T05:40:58.298Z,2.9
2018-04-23T05:43:58.749Z,2.8
2018-04-23T05:46:58.334Z,2.7
2018-04-23T05:49:58.077Z,2.9
2018-04-23T05:52:58.183Z,2.7
2018-04-23T05:55:58.159Z,2.7
2018-04-23T05:58:58.240Z,2.6
2018-04-23T06:01:58.255Z,2.7
2018-04-23T06:04:58.376Z,2.6
2018-04-23T06:07:58.384Z,2.6
2018-04-23T06:10:58.258Z,2.6
2018-04-23T06:13:58.283Z,2.5
2018-04-23T06:16:58.380Z,3.2
2018-04-23T06:19:58.250Z,3.6
2018-04-23T06:22:58.329Z,3.6
2018-04-23T06:25:58.309Z,3.2
2018-04-23T06:28:58.333Z,2.8
2018-04-23T06:31:58.404Z,3
2018-04-23T06:34:58.413Z,3.6
2018-04-23T06:37:58.202Z,3.5
2018-04-23T06:40:58.266Z,3.4
2018-04-23T06:43:58.357Z,3.4
2018-04-23T06:46:58.325Z,5
2018-04-23T06:49:58.226Z,3.3
2018-04-23T06:52:58.235Z,3.1
2018-04-23T06:55:58.357Z,4.5
2018-04-23T06:58:58.226Z,4.6
2018-04-23T07:01:58.341Z,4.9
2018-04-23T07:04:58.977Z,5.8
2018-04-23T07:07:58.329Z,4.3
2018-04-23T07:10:58.261Z,3.4
2018-04-23T07:13:58.330Z,3.5
2018-04-23T07:16:58.360Z,4.3
2018-04-23T07:19:58.470Z,7.4
2018-04-23T07:22:58.382Z,5.9
2018-04-23T07:25:58.307Z,4.2
2018-04-23T07:28:58.396Z,6
2018-04-23T07:31:58.153Z,8.1
2018-04-23T07:34:58.336Z,9.5
2018-04-23T07:37:58.240Z,10.9
2018-04-23T07:40:58.228Z,5.2
2018-04-23T07:43:58.335Z,7.8
2018-04-23T07:46:58.264Z,8.9
2018-04-23T07:49:58.278Z,5.9
2018-04-23T07:52:58.407Z,4.9
2018-04-23T07:55:58.402Z,6.3
2018-04-23T07:58:58.137Z,6
2018-04-23T08:01:58.465Z,8.3
2018-04-23T08:04:58.202Z,9.1
2018-04-23T08:07:58.248Z,7.6
2018-04-23T08:10:58.106Z,6.9
2018-04-23T08:13:58.111Z,4.8
2018-04-23T08:16:58.227Z,4.7
2018-04-23T08:19:58.100Z,7.2
2018-04-23T08:22:58.265Z,6.7
2018-04-23T08:25:58.377Z,6.8
2018-04-23T08:28:58.476Z,5.4
2018-04-23T08:31:58.831Z,5.5
2018-04-23T08:34:58.283Z,6.4
2018-04-23T08:37:58.291Z,4.8
2018-04-23T08:40:58.128Z,4.9
2018-04-23T08:43:58.967Z,5.5
2018-04-23T08:46:58.181Z,6.3
2018-04-23T08:49:58.171Z,5.8
2018-04-23T08:52:58.142Z,5.9
2018-04-23T08:55:58.279Z,4.3
2018-04-23T08:58:58.194Z,6
2018-04-23T09:01:58.192Z,7.7
2018-04-23T09:04:58.234Z,7.2
2018-04-23T09:07:58.236Z,11.2
2018-04-23T09:10:58.253Z,7.6
2018-04-23T09:13:58.209Z,6.9
2018-04-23T09:16:58.301Z,6.3
2018-04-23T09:19:58.212Z,7.3
2018-04-23T09:22:58.207Z,7.7
2018-04-23T09:25:58.309Z,5.5
2018-04-23T09:28:58.305Z,7.9
2018-04-23T09:31:58.252Z,5.7
2018-04-23T09:34:57.986Z,8.4
2018-04-23T09:37:58.347Z,4.2
2018-04-23T09:40:58.214Z,5.7
2018-04-23T09:43:58.180Z,9.2
2018-04-23T09:46:58.201Z,10.3
2018-04-23T09:49:58.250Z,5.6
2018-04-23T09:52:58.522Z,6.5
2018-04-23T09:55:58.339Z,6.4
2018-04-23T09:58:58.242Z,6.5
2018-04-23T10:01:58.356Z,4.6
2018-04-23T10:04:58.257Z,5.3
2018-04-23T10:07:58.370Z,4.3
2018-04-23T10:10:58.340Z,4.7
2018-04-23T10:13:58.376Z,5.6
2018-04-23T10:16:58.331Z,5.3
2018-04-23T10:19:58.151Z,7.2
2018-04-23T10:22:58.239Z,6.6
2018-04-23T10:25:58.191Z,3.7
2018-04-23T10:28:58.131Z,7.4
2018-04-23T10:31:58.339Z,13.2
2018-04-23T10:34:58.128Z,6.6
2018-04-23T10:37:58.133Z,8.1
2018-04-23T10:40:58.293Z,9.1
2018-04-23T10:43:58.232Z,7.4
2018-04-23T10:46:58.187Z,6.4
2018-04-23T10:49:58.329Z,13.3
2018-04-23T10:52:58.325Z,14
2018-04-23T10:55:58.245Z,12.8
2018-04-23T10:58:58.115Z,7.4
2018-04-23T11:01:58.114Z,7.9
2018-04-23T11:04:58.562Z,9.1
2018-04-23T11:07:58.361Z,8.9
2018-04-23T11:10:58.206Z,8.8
2018-04-23T11:13:58.085Z,15.6
2018-04-23T11:16:58.272Z,10.8
2018-04-23T11:19:58.127Z,8
2018-04-23T11:22:58.219Z,10
2018-04-23T11:25:58.111Z,10.4
2018-04-23T11:28:58.109Z,10.8
2018-04-23T11:31:58.052Z,8.7
2018-04-23T11:34:58.206Z,9.8
2018-04-23T11:37:58.133Z,6.1
2018-04-23T11:40:58.185Z,7.3
2018-04-23T11:43:58.217Z,7.3
2018-04-23T11:46:58.188Z,6.7
2018-04-23T11:49:58.044Z,8
2018-04-23T11:52:58.256Z,6.6
2018-04-23T11:55:58.447Z,7.4
2018-04-23T11:58:58.295Z,6.7
2018-04-23T12:01:58.038Z,8.3
2018-04-23T12:04:58.318Z,6.7
2018-04-23T12:44:31.400Z,4.2
2018-04-23T12:47:31.311Z,4.4
2018-04-23T12:53:06.105Z,6.7
2018-04-23T12:56:05.975Z,5.9
2018-04-23T12:59:06.165Z,4.9
2018-04-23T13:02:05.817Z,10.1
2018-04-23T13:05:05.886Z,9.8
2018-04-23T13:08:06.079Z,6.5
2018-04-23T13:11:05.900Z,7.1
2018-04-23T13:14:06.140Z,8.7
2018-04-23T13:17:06.026Z,7
2018-04-23T13:20:06.097Z,5
2018-04-23T13:23:06.125Z,5
2018-04-23T13:26:05.957Z,6.4
2018-04-23T13:29:05.877Z,6.5
2018-04-23T13:32:06.018Z,5.6
2018-04-23T13:35:05.823Z,7.7
2018-04-23T13:38:05.797Z,4.3
2018-04-23T13:41:05.847Z,4.7
2018-04-23T13:44:05.836Z,7.9
2018-04-23T13:47:05.856Z,5.1
2018-04-23T13:50:06.399Z,5.8
2018-04-23T13:53:05.935Z,6.4
2018-04-23T13:56:06.090Z,6.1
2018-04-23T13:59:06.027Z,4.7
2018-04-23T14:02:05.937Z,5.8
2018-04-23T14:05:06.140Z,4.7
2018-04-23T14:08:06.080Z,4.3
2018-04-23T14:11:06.372Z,4.7
2018-04-23T14:14:06.046Z,6.2
2018-04-23T14:17:05.885Z,4.7
2018-04-23T14:20:07.911Z,5.1
2018-04-23T14:26:21.492Z,5
2018-04-23T14:29:21.520Z,6.3
2018-04-23T14:32:21.499Z,6.5
2018-04-23T14:35:23.657Z,4.6
2018-04-23T14:38:21.416Z,6.2
2018-04-23T14:44:22.569Z,4
2018-04-23T14:47:22.653Z,4.6
2018-04-23T14:50:22.459Z,5.1
2018-04-23T14:53:22.444Z,4.9
2018-04-23T14:56:22.507Z,3.9
2018-04-23T15:03:37.477Z,4.7
2018-04-23T15:06:37.495Z,4
2018-04-23T15:09:37.723Z,4.4
2018-04-23T15:12:37.424Z,5.7
2018-04-23T15:15:37.944Z,3.8
2018-04-23T15:18:37.586Z,5.1
2018-04-23T15:21:37.538Z,2.9
2018-04-23T15:24:37.836Z,3.9
2018-04-23T15:27:37.506Z,4.8
2018-04-23T15:30:37.703Z,4.3
2018-04-23T15:33:37.658Z,5.1
2018-04-23T15:36:37.468Z,5.1
2018-04-23T15:39:37.618Z,4.9
2018-04-23T15:42:37.802Z,5.5
2018-04-23T15:45:37.950Z,4
2018-04-23T15:48:37.465Z,3.6
2018-04-23T15:51:38.083Z,6
2018-04-23T16:00:03.364Z,5.5
2018-04-23T16:03:03.521Z,6.1
2018-04-23T16:06:03.353Z,4.5
2018-04-23T16:09:03.305Z,5.7
2018-04-23T16:12:03.411Z,3.6
2018-04-23T16:15:03.417Z,5
2018-04-23T16:18:03.484Z,7.2
2018-04-23T16:21:03.358Z,5.7
2018-04-23T16:24:03.572Z,3.8
2018-04-23T16:27:03.578Z,4.4
2018-04-23T16:30:03.990Z,5.3
2018-04-23T16:33:03.303Z,6.6
2018-04-23T16:39:09.555Z,7.2
2018-04-23T16:43:43.832Z,6.9
2018-04-23T16:46:43.980Z,4.9
2018-04-23T16:49:43.914Z,4.8
2018-04-23T16:52:43.939Z,6
2018-04-23T16:55:43.773Z,4.8
2018-04-23T17:02:43.057Z,7
2018-04-23T17:05:42.849Z,4
2018-04-23T17:08:42.791Z,5.2
2018-04-23T17:11:42.918Z,5.3
2018-04-23T17:14:42.692Z,4.2
2018-04-23T17:17:42.739Z,4.1
2018-04-23T17:20:42.801Z,5.8
2018-04-23T17:23:42.837Z,3.7
2018-04-23T17:26:42.682Z,5.7
2018-04-23T17:29:42.703Z,3.6
2018-04-23T17:32:42.662Z,3.8
2018-04-23T17:35:42.838Z,5.3
2018-04-23T17:38:42.876Z,5.3
2018-04-23T17:41:42.968Z,5.3
2018-04-23T17:44:42.846Z,3.5
2018-04-23T17:47:42.892Z,4.3
2018-04-23T17:50:42.755Z,3.6
2018-04-23T17:53:42.749Z,4.7
2018-04-23T17:56:42.894Z,6.9
2018-04-23T17:59:42.894Z,4.6
2018-04-23T18:02:42.844Z,3.7
2018-04-23T18:05:42.753Z,3.9
2018-04-23T18:08:42.796Z,3.6
2018-04-23T18:11:42.668Z,4
2018-04-23T18:14:42.834Z,4.5
2018-04-23T18:17:42.682Z,3.6
2018-04-23T18:20:42.794Z,3.7
2018-04-23T18:23:42.729Z,3.6
2018-04-23T18:26:43.051Z,5.3
2018-04-23T18:29:42.858Z,4.3
2018-04-23T18:32:42.921Z,3.7
2018-04-23T18:35:43.038Z,4.3
2018-04-23T18:38:43.201Z,4.5
2018-04-23T18:41:42.872Z,3.4
2018-04-23T18:44:42.817Z,3.9
2018-04-23T18:47:42.680Z,5
2018-04-23T18:50:42.864Z,3.7
2018-04-23T18:53:42.809Z,3.8
2018-04-23T18:56:42.848Z,4.6
2018-04-23T18:59:42.799Z,4.2
2018-04-23T19:02:42.690Z,5.4
2018-04-23T19:08:01.366Z,6.8
2018-04-23T19:11:00.976Z,4.7
2018-04-23T19:14:00.992Z,6.9
2018-04-23T19:17:01.046Z,7.5
2018-04-23T19:20:00.985Z,6.3
2018-04-23T19:23:00.971Z,7
2018-04-23T19:26:01.205Z,11.2
2018-04-23T19:29:00.933Z,9
2018-04-23T19:32:01.112Z,6.3
2018-04-23T19:35:01.011Z,8.9
2018-04-23T19:38:02.300Z,8.5
2018-04-23T19:41:00.942Z,8.2
2018-04-23T19:44:01.112Z,8.8
2018-04-23T19:47:01.084Z,13.9
2018-04-23T19:50:01.047Z,13.5
2018-04-23T19:53:01.103Z,10.3
2018-04-23T19:56:01.227Z,9.1
2018-04-23T19:59:00.921Z,10
2018-04-23T20:02:01.218Z,7.3
2018-04-23T20:05:01.120Z,9.1
2018-04-23T20:08:01.066Z,10.6
2018-04-23T20:11:02.245Z,9.7
2018-04-23T20:14:01.719Z,11.1
2018-04-23T20:17:01.062Z,9.3
2018-04-23T20:20:00.958Z,10.7
2018-04-23T20:23:01.797Z,9.9
2018-04-23T20:26:00.911Z,6.4
2018-04-23T20:29:01.904Z,8.1
2018-04-23T20:32:01.968Z,8.7
2018-04-23T20:35:00.912Z,6.9
2018-04-23T20:38:01.825Z,9.5
2018-04-23T20:41:01.002Z,8.5
2018-04-23T20:44:01.529Z,5.4
2018-04-23T20:47:01.947Z,10.4
2018-04-23T20:50:02.078Z,7.7
2018-04-23T20:53:01.640Z,8.3
2018-04-23T20:56:01.953Z,6
2018-04-23T20:59:01.060Z,6.8
2018-04-23T21:02:01.257Z,4.2
2018-04-23T21:05:02.100Z,6.7
2018-04-23T21:08:00.887Z,4.8
2018-04-23T21:11:00.981Z,6.4
2018-04-23T21:14:04.438Z,5.5
2018-04-23T21:17:01.198Z,6.9
2018-04-23T21:20:01.081Z,5.4
2018-04-23T21:23:03.135Z,4.6
2018-04-23T21:26:01.709Z,5.3
2018-04-23T21:29:00.936Z,6.5
2018-04-23T21:32:01.012Z,4.5
2018-04-23T21:35:01.020Z,4.8
2018-04-23T21:38:01.069Z,4.2
2018-04-23T21:41:01.072Z,4.1
2018-04-23T21:44:01.119Z,4.8
2018-04-23T21:47:01.058Z,5.8
2018-04-23T21:50:00.958Z,5
2018-04-23T21:53:00.997Z,6.2
2018-04-23T21:56:01.226Z,4.2
2018-04-23T21:59:01.083Z,4.8
2018-04-23T22:02:01.127Z,4
2018-04-23T22:05:01.082Z,4.7
2018-04-23T22:08:02.000Z,4.1
2018-04-23T22:11:01.307Z,5.5
2018-04-23T22:14:01.650Z,4.7
2018-04-23T22:17:01.341Z,3.7
2018-04-23T22:20:01.283Z,4.2
2018-04-23T22:23:01.250Z,3.7
2018-04-23T22:26:01.300Z,3.4
2018-04-23T22:29:01.662Z,4.3
2018-04-23T22:32:01.399Z,4.3
2018-04-23T22:35:01.304Z,3.7
2018-04-23T22:38:01.374Z,4.4
2018-04-23T22:41:01.386Z,4.1
2018-04-23T22:44:01.312Z,4.4
2018-04-23T22:47:01.618Z,3.7
2018-04-23T22:50:01.325Z,3.1
2018-04-23T22:53:01.579Z,5
2018-04-23T22:56:01.353Z,4.1
2018-04-23T22:59:01.280Z,2.7
2018-04-23T23:02:01.598Z,3.3
2018-04-23T23:05:01.387Z,4.2
2018-04-23T23:08:01.132Z,4
2018-04-23T23:11:01.090Z,3.6
2018-04-23T23:14:01.072Z,4.1
2018-04-23T23:17:02.930Z,3
2018-04-23T23:20:01.030Z,3.1
2018-04-23T23:23:01.178Z,3
2018-04-23T23:26:01.164Z,3.9
2018-04-23T23:29:01.204Z,3.7
2018-04-23T23:32:01.978Z,3
2018-04-23T23:35:01.127Z,4.2
2018-04-23T23:38:01.247Z,3.5
2018-04-23T23:41:00.897Z,3
2018-04-23T23:44:00.913Z,4
2018-04-23T23:47:00.939Z,2.8
2018-04-23T23:50:01.058Z,3.4
2018-04-23T23:53:01.115Z,2.7
2018-04-23T23:56:00.934Z,4.3
2018-04-23T23:59:00.990Z,3.9
